Time;durP1;ratioP1;P1;durP2;ratioP2;P2;SDS_P1;SDS_P2;PMS_P1;PMS_P2;Temp;Humidity;BMP_temperature;BMP_pressure;BME280_temperature;BME280_humidity;BME280_pressure;Samples;Min_cycle;Max_cycle;Signal;HPM_P1;HPM_P2
2024/04/13 00:01:52;;;;;;;0.30;0.20;;;;;;;12.10;99.49;101534.44;5416027;26;20486;-49
2024/04/13 00:04:18;;;;;;;0.30;0.20;;;;;;;12.19;99.78;101528.09;5416266;26;21000;-48
2024/04/13 00:06:45;;;;;;;0.30;0.20;;;;;;;12.27;98.56;101526.19;5415981;26;20550;-48
2024/04/13 00:09:12;;;;;;;0.30;0.20;;;;;;;12.05;99.88;101518.50;5415530;26;20479;-48
2024/04/13 00:11:38;;;;;;;0.30;0.20;;;;;;;12.20;99.28;101520.09;5414007;26;20482;-48
2024/04/13 00:14:05;;;;;;;0.30;0.20;;;;;;;12.37;98.79;101517.16;5415736;26;20479;-48
2024/04/13 00:16:32;;;;;;;0.30;0.20;;;;;;;11.94;99.49;101524.94;5415511;26;20471;-48
2024/04/13 00:18:58;;;;;;;0.30;0.20;;;;;;;11.93;100.00;101516.06;5415786;26;20471;-48
2024/04/13 00:21:25;;;;;;;0.30;0.20;;;;;;;12.11;100.00;101522.88;5415476;26;20531;-49
2024/04/13 00:23:52;;;;;;;0.30;0.20;;;;;;;12.18;99.69;101521.88;5415016;26;20479;-48
2024/04/13 00:26:20;;;;;;;0.40;0.30;;;;;;;12.21;98.99;101529.84;5415304;26;20482;-48
2024/04/13 00:28:48;;;;;;;0.30;0.20;;;;;;;12.01;100.00;101529.25;5415367;26;20546;-49
2024/04/13 00:31:14;;;;;;;0.30;0.20;;;;;;;12.11;100.00;101528.22;5413591;26;20483;-48
2024/04/13 00:33:41;;;;;;;0.30;0.20;;;;;;;12.14;99.42;101530.81;5415370;26;20572;-48
2024/04/13 00:36:08;;;;;;;0.30;0.20;;;;;;;12.14;99.52;101538.81;5415267;26;21038;-48
2024/04/13 00:38:35;;;;;;;0.30;0.20;;;;;;;11.96;100.00;101526.66;5415514;26;20479;-48
2024/04/13 00:41:02;;;;;;;0.30;0.20;;;;;;;12.01;99.87;101524.78;5414999;26;21059;-49
2024/04/13 00:43:28;;;;;;;0.30;0.20;;;;;;;12.01;100.00;101523.91;5415324;26;20478;-48
2024/04/13 00:45:55;;;;;;;0.30;0.20;;;;;;;12.02;99.12;101529.22;5414949;26;20471;-49
2024/04/13 00:48:24;;;;;;;0.33;0.27;;;;;;;11.79;99.51;101513.59;5415532;26;20974;-49
2024/04/13 00:50:58;;;;;;;0.30;0.20;;;;;;;11.81;100.00;101508.22;5415138;26;20522;-48
2024/04/13 00:53:27;;;;;;;0.30;0.20;;;;;;;11.96;99.33;101509.78;5401373;26;20483;-49
2024/04/13 00:55:56;;;;;;;0.30;0.20;;;;;;;11.83;98.71;101514.41;5415908;26;20999;-49
2024/04/13 00:58:26;;;;;;;0.30;0.20;;;;;;;11.73;99.92;101510.06;5418679;26;20467;-48
2024/04/13 01:00:56;;;;;;;0.30;0.20;;;;;;;11.74;98.88;101520.69;5418423;26;20475;-48
2024/04/13 01:03:24;;;;;;;0.30;0.20;;;;;;;11.50;100.00;101515.69;5418120;26;20486;-50
2024/04/13 01:05:52;;;;;;;0.30;0.20;;;;;;;11.56;100.00;101519.16;5418364;26;20527;-48
2024/04/13 01:08:20;;;;;;;0.30;0.20;;;;;;;11.71;99.84;101512.75;5418184;26;20523;-49
2024/04/13 01:10:47;;;;;;;0.30;0.20;;;;;;;11.64;99.64;101516.38;5418315;26;20928;-48
2024/04/13 01:13:16;;;;;;;0.30;0.20;;;;;;;11.52;98.86;101505.94;5418121;26;20827;-48
2024/04/13 01:15:43;;;;;;;0.30;0.20;;;;;;;11.54;98.44;101509.44;5418350;26;20483;-48
2024/04/13 01:18:10;;;;;;;0.30;0.20;;;;;;;11.57;99.30;101504.06;5418274;26;20471;-49
2024/04/13 01:20:38;;;;;;;0.30;0.20;;;;;;;11.46;99.34;101500.66;5418003;26;20475;-48
2024/04/13 01:23:11;;;;;;;0.30;0.20;;;;;;;11.25;100.00;101496.50;5417866;26;20554;-49
2024/04/13 01:25:40;;;;;;;0.30;0.20;;;;;;;11.49;100.00;101496.16;5418267;26;20475;-49
2024/04/13 01:28:07;;;;;;;0.30;0.20;;;;;;;11.33;100.00;101499.06;5418132;26;20479;-50
2024/04/13 01:30:35;;;;;;;0.30;0.20;;;;;;;11.40;100.00;101488.31;5418137;26;20467;-48
2024/04/13 01:33:03;;;;;;;0.30;0.20;;;;;;;11.42;100.00;101482.97;5417627;26;20860;-48
2024/04/13 01:35:32;;;;;;;0.30;0.20;;;;;;;11.39;99.74;101489.22;5417964;26;21066;-49
2024/04/13 01:37:59;;;;;;;0.30;0.20;;;;;;;11.27;99.38;101492.91;5417569;26;20523;-48
2024/04/13 01:40:25;;;;;;;0.30;0.20;;;;;;;11.04;100.00;101488.75;5418161;26;20479;-48
2024/04/13 01:42:52;;;;;;;0.30;0.20;;;;;;;11.32;99.90;101492.84;5417796;26;21051;-49
2024/04/13 01:45:19;;;;;;;0.30;0.20;;;;;;;11.34;98.81;101491.03;5418081;26;20529;-48
2024/04/13 01:47:45;;;;;;;0.30;0.20;;;;;;;11.19;98.74;101497.44;5417773;26;20491;-48
2024/04/13 01:50:12;;;;;;;0.30;0.20;;;;;;;11.10;99.25;101501.97;5417874;26;20471;-48
2024/04/13 01:52:39;;;;;;;0.30;0.20;;;;;;;11.21;100.00;101506.28;5417813;26;20478;-51
2024/04/13 01:55:06;;;;;;;0.30;0.20;;;;;;;11.20;99.49;101498.31;5417730;26;20476;-51
2024/04/13 01:57:33;;;;;;;0.30;0.20;;;;;;;11.10;100.00;101502.88;5417662;26;21066;-50
2024/04/13 02:00:00;;;;;;;0.30;0.20;;;;;;;10.97;100.00;101494.16;5417739;26;20479;-51
2024/04/13 02:02:27;;;;;;;0.30;0.20;;;;;;;11.12;100.00;101503.75;5417295;26;20593;-51
2024/04/13 02:04:53;;;;;;;0.30;0.20;;;;;;;11.04;100.00;101502.94;5403500;26;20675;-51
2024/04/13 02:07:20;;;;;;;0.30;0.20;;;;;;;11.03;100.00;101498.50;5417333;26;20475;-51
2024/04/13 02:09:47;;;;;;;0.30;0.20;;;;;;;11.23;100.00;101495.59;5417660;26;20563;-51
2024/04/13 02:12:14;;;;;;;0.30;0.20;;;;;;;11.18;100.00;101502.78;5417330;26;20475;-51
2024/04/13 02:14:40;;;;;;;0.30;0.20;;;;;;;11.26;100.00;101492.94;5417637;26;20523;-51
2024/04/13 02:17:07;;;;;;;0.30;0.20;;;;;;;11.12;100.00;101489.56;5417446;26;20471;-51
2024/04/13 02:19:34;;;;;;;0.30;0.20;;;;;;;11.12;99.45;101485.13;5415768;26;21072;-50
2024/04/13 02:22:00;;;;;;;0.50;0.50;;;;;;;11.12;99.63;101478.91;5417111;26;20582;-50
2024/04/13 02:24:27;;;;;;;0.30;0.20;;;;;;;10.96;99.15;101486.16;5417109;26;20523;-51
2024/04/13 02:26:53;;;;;;;0.30;0.20;;;;;;;10.95;99.33;101484.41;5416954;26;20467;-50
2024/04/13 02:29:20;;;;;;;0.30;0.20;;;;;;;10.80;99.16;101481.91;5417445;26;20560;-51
2024/04/13 02:31:46;;;;;;;0.30;0.20;;;;;;;10.59;100.00;101475.03;5417296;26;21411;-51
2024/04/13 02:34:13;;;;;;;0.30;0.20;;;;;;;10.63;100.00;101476.75;5417024;26;21007;-50
2024/04/13 02:36:39;;;;;;;0.30;0.20;;;;;;;10.56;100.00;101483.94;5417204;26;20547;-50
2024/04/13 02:39:08;;;;;;;0.30;0.20;;;;;;;10.58;100.00;101481.25;5417168;26;20528;-51
2024/04/13 02:41:35;;;;;;;0.93;0.93;;;;;;;10.56;100.00;101475.06;5416774;26;20472;-51
2024/04/13 02:44:02;;;;;;;0.30;0.20;;;;;;;10.56;100.00;101478.63;5417133;26;20475;-50
2024/04/13 02:46:29;;;;;;;0.30;0.20;;;;;;;10.58;100.00;101483.91;5417455;26;20478;-50
2024/04/13 02:48:55;;;;;;;0.30;0.20;;;;;;;10.67;100.00;101479.38;5416861;26;20468;-50
2024/04/13 02:51:22;;;;;;;0.30;0.20;;;;;;;10.58;98.69;101486.56;5417041;26;20478;-51
2024/04/13 02:53:49;;;;;;;0.30;0.20;;;;;;;10.41;99.79;101481.38;5416525;26;20601;-50
2024/04/13 02:56:15;;;;;;;0.30;0.20;;;;;;;10.34;100.00;101480.56;5416692;26;20852;-50
2024/04/13 02:58:42;;;;;;;0.30;0.20;;;;;;;10.30;100.00;101475.31;5416529;26;20581;-51
2024/04/13 03:01:08;;;;;;;0.30;0.20;;;;;;;10.13;100.00;101487.78;5417084;26;21064;-50
2024/04/13 03:03:35;;;;;;;0.30;0.20;;;;;;;10.19;100.00;101485.97;5416537;26;20491;-51
2024/04/13 03:06:11;;;;;;;0.30;0.20;;;;;;;10.11;100.00;101482.47;5416892;26;20584;-50
2024/04/13 03:08:38;;;;;;;0.30;0.20;;;;;;;10.03;100.00;101481.69;5416619;26;20482;-50
2024/04/13 03:11:08;;;;;;;0.30;0.20;;;;;;;9.98;100.00;101481.69;5416926;26;20534;-51
2024/04/13 03:13:36;;;;;;;0.30;0.20;;;;;;;9.99;100.00;101485.22;5416301;26;20561;-50
2024/04/13 03:16:09;;;;;;;0.30;0.20;;;;;;;9.94;100.00;101481.72;5416681;26;20467;-50
2024/04/13 03:18:46;;;;;;;0.30;0.20;;;;;;;9.85;100.00;101484.44;5416529;26;20491;-50
2024/04/13 03:21:13;;;;;;;0.30;0.20;;;;;;;9.90;100.00;101487.97;5416559;26;20494;-50
2024/04/13 03:23:40;;;;;;;0.30;0.20;;;;;;;10.04;100.00;101489.63;5416282;26;21080;-50
2024/04/13 03:26:08;;;;;;;0.30;0.20;;;;;;;10.22;99.24;101488.63;5415920;26;20911;-51
2024/04/13 03:28:35;;;;;;;0.30;0.20;;;;;;;10.36;99.50;101483.22;5392430;26;20479;-50
2024/04/13 03:31:04;;;;;;;0.30;0.20;;;;;;;10.13;100.00;101474.50;5416492;26;20863;-51
2024/04/13 03:33:31;;;;;;;0.30;0.20;;;;;;;10.08;100.00;101479.84;5416092;26;20535;-50
2024/04/13 03:36:03;;;;;;;0.30;0.20;;;;;;;10.10;99.86;101476.28;5416129;26;20507;-50
2024/04/13 03:38:31;;;;;;;1.43;1.40;;;;;;;10.17;100.00;101465.63;5416416;26;21011;-51
2024/04/13 03:41:07;;;;;;;0.30;0.20;;;;;;;10.18;100.00;101464.75;5415871;26;20523;-50
2024/04/13 03:43:38;;;;;;;0.30;0.20;;;;;;;10.23;100.00;101469.13;5416274;26;20589;-52
2024/04/13 03:46:06;;;;;;;0.30;0.20;;;;;;;10.17;100.00;101469.16;5416078;26;20482;-50
2024/04/13 03:48:33;;;;;;;0.30;0.20;;;;;;;10.14;100.00;101469.16;5416161;26;20475;-51
2024/04/13 03:51:01;;;;;;;0.30;0.20;;;;;;;10.18;100.00;101465.63;5415989;26;20471;-51
2024/04/13 03:53:28;;;;;;;0.30;0.20;;;;;;;10.25;100.00;101469.13;5416006;26;20482;-50
2024/04/13 03:55:54;;;;;;;0.30;0.20;;;;;;;10.29;100.00;101470.88;5415245;26;20471;-50
2024/04/13 03:58:21;;;;;;;0.30;0.20;;;;;;;10.09;100.00;101465.69;5415910;26;20854;-50
2024/04/13 04:00:48;;;;;;;0.30;0.20;;;;;;;9.90;100.00;101464.94;5415430;26;20471;-51
2024/04/13 04:03:14;;;;;;;0.30;0.20;;;;;;;9.90;100.00;101466.72;5404936;26;20492;-50
2024/04/13 04:05:41;;;;;;;0.30;0.20;;;;;;;9.83;100.00;101455.25;5414008;26;21188;-50
2024/04/13 04:08:08;;;;;;;0.30;0.20;;;;;;;9.76;100.00;101454.41;5415533;26;20471;-51
2024/04/13 04:10:35;;;;;;;0.30;0.20;;;;;;;9.62;100.00;101453.63;5415585;26;20529;-50
2024/04/13 04:13:02;;;;;;;0.30;0.20;;;;;;;9.78;100.00;101449.97;5415035;26;20564;-50
2024/04/13 04:15:28;;;;;;;0.30;0.20;;;;;;;9.73;100.00;101443.81;5414917;26;20491;-49
2024/04/13 04:17:55;;;;;;;0.30;0.20;;;;;;;9.78;100.00;101452.63;5414992;26;20852;-49
2024/04/13 04:20:22;;;;;;;0.30;0.20;;;;;;;9.98;100.00;101455.13;5414903;26;20479;-49
2024/04/13 04:22:50;;;;;;;0.30;0.20;;;;;;;9.85;100.00;101448.13;5415448;26;20478;-49
2024/04/13 04:25:20;;;;;;;0.30;0.20;;;;;;;9.92;100.00;101459.63;5391761;26;20530;-50
2024/04/13 04:27:46;;;;;;;0.30;0.20;;;;;;;9.87;100.00;101453.44;5414960;26;20478;-50
2024/04/13 04:30:13;;;;;;;0.30;0.20;;;;;;;9.74;100.00;101463.28;5418696;26;20471;-50
2024/04/13 04:32:40;;;;;;;0.30;0.20;;;;;;;9.80;100.00;101458.81;5417857;26;20700;-50
2024/04/13 04:35:07;;;;;;;0.30;0.20;;;;;;;9.77;100.00;101463.25;5418775;26;20534;-50
2024/04/13 04:37:34;;;;;;;0.30;0.20;;;;;;;9.70;100.00;101459.75;5418621;26;21018;-50
2024/04/13 04:40:02;;;;;;;0.30;0.20;;;;;;;9.61;100.00;101462.47;5418708;26;21079;-50
2024/04/13 04:42:28;;;;;;;0.30;0.20;;;;;;;9.66;100.00;101465.09;5417778;26;20483;-50
2024/04/13 04:44:55;;;;;;;0.30;0.20;;;;;;;9.75;100.00;101457.09;5418464;26;20697;-49
2024/04/13 04:47:22;;;;;;;0.30;0.20;;;;;;;9.64;100.00;101451.81;5418635;26;20475;-50
2024/04/13 04:49:49;;;;;;;0.30;0.20;;;;;;;9.77;100.00;101453.53;5418173;26;20515;-50
2024/04/13 04:52:17;;;;;;;0.30;0.20;;;;;;;9.68;100.00;101455.34;5418211;26;20482;-50
2024/04/13 04:54:44;;;;;;;0.30;0.20;;;;;;;9.77;100.00;101457.94;5419252;26;20550;-49
2024/04/13 04:57:11;;;;;;;0.30;0.20;;;;;;;9.69;100.00;101459.75;5418182;26;21006;-49
2024/04/13 04:59:38;;;;;;;0.30;0.20;;;;;;;9.71;100.00;101457.97;5418547;26;20863;-49
2024/04/13 05:02:04;;;;;;;0.30;0.20;;;;;;;9.80;100.00;101463.22;5418313;26;20538;-50
2024/04/13 05:04:31;;;;;;;0.30;0.20;;;;;;;9.85;100.00;101465.84;5396796;26;21567;-50
2024/04/13 05:06:58;;;;;;;0.30;0.20;;;;;;;9.87;100.00;101466.72;5411529;26;20467;-50
2024/04/13 05:09:26;;;;;;;0.30;0.20;;;;;;;10.01;100.00;101455.13;5417947;26;20467;-50
2024/04/13 05:11:52;;;;;;;0.30;0.20;;;;;;;10.24;100.00;101462.06;5417956;26;20483;-50
2024/04/13 05:14:19;;;;;;;0.30;0.20;;;;;;;10.48;100.00;101453.88;5417835;26;20475;-50
2024/04/13 05:16:46;;;;;;;0.30;0.20;;;;;;;10.57;100.00;101460.88;5418772;26;20486;-50
2024/04/13 05:19:13;;;;;;;0.30;0.20;;;;;;;10.74;99.67;101463.38;5418172;26;21011;-50
2024/04/13 05:21:40;;;;;;;0.30;0.20;;;;;;;10.94;99.17;101469.34;5417954;26;20562;-50
2024/04/13 05:24:07;;;;;;;0.30;0.20;;;;;;;11.15;96.45;101473.53;5417699;26;21019;-49
2024/04/13 05:26:34;;;;;;;0.30;0.20;;;;;;;11.40;95.89;101477.69;5417980;26;20888;-50
2024/04/13 05:29:03;;;;;;;0.30;0.20;;;;;;;11.52;95.39;101482.84;5409923;26;20848;-49
2024/04/13 05:31:29;;;;;;;0.30;0.20;;;;;;;11.58;95.78;101473.88;5418141;26;20471;-49
2024/04/13 05:33:56;;;;;;;0.30;0.20;;;;;;;11.75;95.10;101481.63;5418214;26;20902;-50
2024/04/13 05:36:23;;;;;;;0.40;0.30;;;;;;;11.91;95.33;101483.19;5418000;26;20522;-50
2024/04/13 05:38:50;;;;;;;0.30;0.20;;;;;;;12.23;95.00;101489.84;5418063;26;20869;-50
2024/04/13 05:41:16;;;;;;;0.30;0.20;;;;;;;12.42;94.33;101493.94;5416781;26;21117;-50
2024/04/13 05:43:43;;;;;;;0.30;0.20;;;;;;;12.71;93.07;101482.75;5417898;26;20475;-50
2024/04/13 05:46:10;;;;;;;0.30;0.20;;;;;;;13.08;91.56;101492.75;5418020;26;20475;-49
2024/04/13 05:48:36;;;;;;;0.30;0.20;;;;;;;13.14;90.98;101497.97;5417931;26;20923;-50
2024/04/13 05:51:04;;;;;;;0.30;0.20;;;;;;;13.43;89.36;101506.31;5418015;26;20582;-50
2024/04/13 05:53:31;;;;;;;0.30;0.20;;;;;;;13.63;89.31;101498.75;5417909;26;21071;-50
2024/04/13 05:56:04;;;;;;;0.30;0.20;;;;;;;13.73;88.69;101499.44;5418089;26;20870;-50
2024/04/13 05:58:30;;;;;;;0.30;0.20;;;;;;;13.64;89.71;101499.63;5418187;26;20523;-50
2024/04/13 06:00:57;;;;;;;0.30;0.20;;;;;;;13.63;90.41;101506.75;5417803;26;20523;-50
2024/04/13 06:03:24;;;;;;;0.30;0.20;;;;;;;13.82;91.68;101511.69;5404669;26;20488;-50
2024/04/13 06:05:50;;;;;;;0.30;0.20;;;;;;;13.64;93.13;101510.31;5406296;26;20521;-49
2024/04/13 06:08:17;;;;;;;0.30;0.20;;;;;;;13.79;93.41;101509.97;5405208;26;20593;-50
2024/04/13 06:10:43;;;;;;;0.30;0.30;;;;;;;13.51;94.26;101511.50;5417740;26;20475;-49
2024/04/13 06:13:10;;;;;;;42.60;21.47;;;;;;;13.74;93.78;101517.22;5417678;26;20825;-50
2024/04/13 06:15:37;;;;;;;0.30;0.20;;;;;;;13.70;93.97;101514.63;5417589;26;20467;-50
2024/04/13 06:18:04;;;;;;;0.30;0.20;;;;;;;13.52;95.72;101508.78;5417573;26;20483;-50
2024/04/13 06:20:31;;;;;;;0.40;0.30;;;;;;;13.66;96.32;101505.81;5417333;26;20535;-50
2024/04/13 06:22:58;;;;;;;0.30;0.20;;;;;;;13.84;96.13;101507.19;5417619;26;21020;-50
2024/04/13 06:25:25;;;;;;;0.30;0.20;;;;;;;13.87;96.67;101508.03;5417388;26;20523;-50
2024/04/13 06:27:54;;;;;;;0.30;0.20;;;;;;;13.88;97.21;101508.91;5417252;26;20479;-50
2024/04/13 06:30:22;;;;;;;0.30;0.20;;;;;;;13.76;98.25;101518.06;5393572;26;20964;-50
2024/04/13 06:32:48;;;;;;;0.30;0.20;;;;;;;13.70;99.75;101518.19;5416756;26;20487;-50
2024/04/13 06:35:15;;;;;;;0.30;0.20;;;;;;;14.00;99.59;101513.09;5416952;26;20471;-50
2024/04/13 06:37:42;;;;;;;0.30;0.20;;;;;;;14.17;98.38;101524.28;5416841;26;20531;-50
2024/04/13 06:40:10;;;;;;;0.30;0.20;;;;;;;14.13;97.99;101518.13;5417015;26;20482;-50
2024/04/13 06:42:37;;;;;;;0.30;0.20;;;;;;;14.52;95.02;101515.41;5416983;26;20547;-50
2024/04/13 06:45:04;;;;;;;0.30;0.20;;;;;;;14.33;96.31;101514.09;5417031;26;20483;-50
2024/04/13 06:47:30;;;;;;;0.33;0.20;;;;;;;14.46;97.03;101505.75;5416842;26;20527;-50
2024/04/13 06:50:00;;;;;;;0.30;0.20;;;;;;;14.39;97.49;101513.91;5416819;26;20523;-49
2024/04/13 06:52:27;;;;;;;0.30;0.20;;;;;;;14.49;97.36;101507.47;5416067;26;20531;-50
2024/04/13 06:54:54;;;;;;;0.30;0.20;;;;;;;14.43;98.16;101507.59;5414823;26;20556;-50
2024/04/13 06:57:20;;;;;;;0.30;0.20;;;;;;;14.70;96.41;101514.09;5412221;26;20595;-51
2024/04/13 06:59:47;;;;;;;0.30;0.20;;;;;;;14.35;97.56;101509.56;5415312;26;20487;-49
2024/04/13 07:02:13;;;;;;;0.30;0.20;;;;;;;14.68;96.46;101510.56;5416192;26;20474;-49
2024/04/13 07:04:40;;;;;;;0.30;0.20;;;;;;;14.44;96.85;101510.25;5416274;26;20833;-49
2024/04/13 07:07:07;;;;;;;0.50;0.50;;;;;;;14.72;96.55;101506.88;5416211;26;20471;-49
2024/04/13 07:09:33;;;;;;;0.30;0.20;;;;;;;14.66;96.58;101504.34;5417100;26;20467;-49
2024/04/13 07:12:00;;;;;;;0.30;0.20;;;;;;;14.86;95.79;101498.50;5416088;26;20466;-49
2024/04/13 07:14:27;;;;;;;2.57;2.37;;;;;;;14.86;93.80;101494.00;5416262;26;20519;-49
2024/04/13 07:16:53;;;;;;;0.40;0.20;;;;;;;15.06;93.99;101486.28;5415974;26;20471;-49
2024/04/13 07:19:20;;;;;;;0.70;0.70;;;;;;;15.02;93.55;101490.00;5416715;26;20479;-48
2024/04/13 07:21:47;;;;;;;0.30;0.20;;;;;;;15.18;92.88;101479.72;5415949;26;20463;-49
2024/04/13 07:24:14;;;;;;;0.40;0.20;;;;;;;15.23;92.24;101487.66;5396082;26;20591;-49
2024/04/13 07:26:40;;;;;;;0.30;0.20;;;;;;;15.25;93.15;101486.69;5412845;26;21018;-49
2024/04/13 07:29:07;;;;;;;0.40;0.20;;;;;;;15.57;91.88;101484.84;5415994;26;20471;-49
2024/04/13 07:31:33;;;;;;;0.40;0.20;;;;;;;15.27;93.04;101475.91;5415743;26;20471;-49
2024/04/13 07:34:00;;;;;;;0.30;0.20;;;;;;;15.44;92.95;101473.63;5415911;26;20589;-49
2024/04/13 07:36:27;;;;;;;0.40;0.20;;;;;;;15.59;92.83;101475.88;5416146;26;20527;-50
2024/04/13 07:38:53;;;;;;;1.50;1.50;;;;;;;15.95;91.52;101470.28;5416103;26;20595;-50
2024/04/13 07:41:20;;;;;;;0.40;0.20;;;;;;;15.99;92.18;101471.94;5416080;26;20523;-49
2024/04/13 07:43:46;;;;;;;0.40;0.20;;;;;;;15.83;91.82;101466.19;5415604;26;20482;-49
2024/04/13 07:46:13;;;;;;;0.40;0.20;;;;;;;16.10;92.14;101469.81;5415762;26;20491;-48
2024/04/13 07:48:39;;;;;;;0.40;0.20;;;;;;;16.24;92.06;101463.97;5415730;26;20519;-50
2024/04/13 07:51:06;;;;;;;0.40;0.20;;;;;;;16.41;92.11;101463.41;5414769;26;20479;-50
2024/04/13 07:53:34;;;;;;;0.40;0.20;;;;;;;16.59;91.93;101460.13;5417660;26;20536;-49
2024/04/13 07:56:01;;;;;;;0.40;0.20;;;;;;;16.48;92.83;101463.16;5415417;26;20486;-49
2024/04/13 07:58:28;;;;;;;0.40;0.20;;;;;;;16.84;92.78;101452.97;5414898;26;20523;-49
2024/04/13 08:00:54;;;;;;;0.40;0.20;;;;;;;16.80;91.62;101458.50;5414744;26;20593;-49
2024/04/13 08:03:23;;;;;;;0.40;0.20;;;;;;;17.21;91.82;101456.13;5415875;26;20550;-50
2024/04/13 08:05:50;;;;;;;0.40;0.20;;;;;;;16.98;89.41;101457.84;5419063;26;20904;-50
2024/04/13 08:08:17;;;;;;;0.40;0.20;;;;;;;17.12;89.56;101451.94;5419276;26;20474;-50
2024/04/13 08:10:44;;;;;;;0.40;0.20;;;;;;;17.29;89.52;101454.03;5416990;26;20519;-50
2024/04/13 08:13:11;;;;;;;0.40;0.20;;;;;;;17.24;89.50;101448.81;5412958;26;20479;-50
2024/04/13 08:15:40;;;;;;;0.40;0.20;;;;;;;17.23;89.70;101452.44;5394971;26;21004;-50
2024/04/13 08:18:08;;;;;;;0.40;0.20;;;;;;;17.36;89.29;101451.03;5418941;26;20493;-50
2024/04/13 08:20:34;;;;;;;0.40;0.30;;;;;;;17.54;87.81;101448.56;5418958;26;20470;-51
2024/04/13 08:23:02;;;;;;;0.40;0.20;;;;;;;18.11;86.46;101444.56;5419014;26;20527;-50
2024/04/13 08:25:29;;;;;;;0.40;0.20;;;;;;;17.83;86.09;101444.81;5418993;26;20840;-50
2024/04/13 08:27:55;;;;;;;0.40;0.20;;;;;;;18.26;84.75;101447.47;5418478;26;20471;-51
2024/04/13 08:30:22;;;;;;;0.40;0.20;;;;;;;18.22;82.98;101442.25;5419116;26;21109;-51
2024/04/13 08:32:49;;;;;;;0.40;0.20;;;;;;;18.08;82.41;101439.28;5418750;26;20475;-50
2024/04/13 08:35:16;;;;;;;0.40;0.20;;;;;;;18.26;82.39;101436.72;5418953;26;20479;-51
2024/04/13 08:37:46;;;;;;;0.40;0.20;;;;;;;18.49;83.00;101430.31;5418872;26;21011;-50
2024/04/13 08:40:12;;;;;;;0.40;0.20;;;;;;;18.44;81.45;101432.34;5418815;26;20519;-51
2024/04/13 08:42:40;;;;;;;0.40;0.20;;;;;;;18.66;80.98;101429.66;5418554;26;20515;-50
2024/04/13 08:45:11;;;;;;;0.40;0.20;;;;;;;19.04;79.83;101424.34;5418999;26;20590;-50
2024/04/13 08:47:41;;;;;;;0.40;0.20;;;;;;;19.03;77.37;101420.78;5418632;26;20486;-51
2024/04/13 08:50:08;;;;;;;0.40;0.20;;;;;;;19.34;77.31;101419.38;5418725;26;20479;-50
2024/04/13 08:52:39;;;;;;;0.40;0.20;;;;;;;19.54;76.13;101427.41;5418443;26;20542;-51
2024/04/13 08:55:06;;;;;;;0.40;0.20;;;;;;;19.29;76.29;101416.00;5418599;26;20479;-51
2024/04/13 08:57:36;;;;;;;0.40;0.20;;;;;;;19.18;75.83;101420.06;5418495;26;20478;-50
2024/04/13 09:00:05;;;;;;;0.40;0.20;;;;;;;19.96;74.88;101420.91;5418891;26;20542;-50
2024/04/13 09:02:35;;;;;;;0.40;0.30;;;;;;;20.13;73.15;101418.22;5417933;26;20804;-51
2024/04/13 09:05:03;;;;;;;0.40;0.20;;;;;;;19.92;73.44;101411.22;5407553;26;20455;-51
2024/04/13 09:07:34;;;;;;;0.40;0.20;;;;;;;20.28;72.91;101408.47;5418644;26;20523;-51
2024/04/13 09:10:04;;;;;;;0.40;0.20;;;;;;;20.44;74.03;101412.19;5418274;26;20475;-51
2024/04/13 09:12:33;;;;;;;0.40;0.20;;;;;;;20.51;72.32;101407.34;5418554;26;20535;-50
2024/04/13 09:15:04;;;;;;;0.40;0.20;;;;;;;20.05;74.59;101407.84;5418236;26;20504;-50
2024/04/13 09:17:31;;;;;;;0.40;0.20;;;;;;;20.26;73.82;101405.84;5418227;26;20877;-50
2024/04/13 09:20:07;;;;;;;0.40;0.20;;;;;;;20.18;74.06;101410.78;5418235;26;20579;-51
2024/04/13 09:22:35;;;;;;;0.40;0.20;;;;;;;20.36;74.12;101407.13;5418354;26;20498;-51
2024/04/13 09:25:02;;;;;;;0.40;0.20;;;;;;;20.15;74.51;101407.34;5418288;26;20999;-50
2024/04/13 09:27:30;;;;;;;0.40;0.20;;;;;;;20.07;74.85;101405.06;5418639;26;20534;-50
2024/04/13 09:30:07;;;;;;;0.40;0.20;;;;;;;20.23;75.04;101403.31;5417984;26;20488;-51
2024/04/13 09:32:34;;;;;;;0.40;0.20;;;;;;;20.47;74.18;101403.06;5418245;26;20495;-51
2024/04/13 09:35:12;;;;;;;0.40;0.20;;;;;;;20.68;72.90;101402.78;5418012;26;20455;-51
2024/04/13 09:37:39;;;;;;;0.40;0.20;;;;;;;20.91;72.11;101404.28;5417809;26;20585;-51
2024/04/13 09:40:07;;;;;;;0.40;0.20;;;;;;;20.79;71.07;101391.41;5418095;26;20474;-50
2024/04/13 09:42:33;;;;;;;0.40;0.20;;;;;;;20.90;71.42;101389.00;5417920;26;20996;-51
2024/04/13 09:45:07;;;;;;;0.40;0.20;;;;;;;21.17;70.17;101383.06;5417950;26;20867;-51
2024/04/13 09:47:34;;;;;;;0.40;0.20;;;;;;;20.91;69.97;101381.78;5417984;26;20817;-51
2024/04/13 09:50:01;;;;;;;0.40;0.20;;;;;;;21.20;70.38;101372.06;5417906;26;21011;-51
2024/04/13 09:52:28;;;;;;;0.40;0.20;;;;;;;21.52;70.29;101378.44;5417669;26;20475;-51
2024/04/13 09:54:55;;;;;;;0.40;0.30;;;;;;;21.47;69.29;101375.09;5417623;26;20500;-51
2024/04/13 09:57:24;;;;;;;0.40;0.20;;;;;;;21.97;66.90;101374.91;5417664;26;20956;-51
2024/04/13 09:59:51;;;;;;;0.40;0.20;;;;;;;21.47;67.34;101367.84;5417608;26;20470;-51
2024/04/13 10:02:18;;;;;;;0.50;0.20;;;;;;;21.73;67.93;101365.50;5415755;26;20459;-50
2024/04/13 10:04:46;;;;;;;0.40;0.20;;;;;;;22.07;66.57;101368.00;5404578;26;20530;-51
2024/04/13 10:07:14;;;;;;;0.40;0.20;;;;;;;22.02;65.10;101358.38;5417590;26;20463;-51
2024/04/13 10:09:44;;;;;;;0.40;0.20;;;;;;;21.76;66.56;101359.88;5417806;26;21000;-50
2024/04/13 10:12:24;;;;;;;0.40;0.20;;;;;;;21.69;65.75;101355.81;5417432;26;20470;-51
2024/04/13 10:14:52;;;;;;;0.40;0.20;;;;;;;21.99;65.88;101351.31;5417450;26;20821;-50
2024/04/13 10:17:20;;;;;;;0.60;0.60;;;;;;;22.16;65.53;101355.75;5417529;26;20507;-50
2024/04/13 10:19:46;;;;;;;0.40;0.20;;;;;;;22.01;65.07;101360.19;5417289;26;21043;-51
2024/04/13 10:22:13;;;;;;;0.40;0.20;;;;;;;21.94;65.05;101353.41;5417781;26;20503;-50
2024/04/13 10:25:07;;;;;;;0.40;0.20;;;;;;;22.13;65.23;101348.69;5417452;26;20858;-50
2024/04/13 10:27:34;;;;;;;0.70;0.70;;;;;;;22.27;64.86;101345.13;5416485;26;20531;-51
2024/04/13 10:30:03;;;;;;;0.40;0.20;;;;;;;22.10;65.04;101338.03;5417390;26;20511;-50
2024/04/13 10:32:30;;;;;;;0.40;0.20;;;;;;;22.20;65.78;101337.47;5417512;26;21015;-51
2024/04/13 10:35:09;;;;;;;0.40;0.20;;;;;;;22.50;63.62;101327.50;5417164;26;20591;-51
2024/04/13 10:37:36;;;;;;;0.40;0.20;;;;;;;22.48;63.22;101329.44;5416963;26;20444;-51
2024/04/13 10:40:05;;;;;;;0.40;0.20;;;;;;;23.14;63.43;101330.69;5417358;26;20496;-51
2024/04/13 10:42:42;;;;;;;0.40;0.20;;;;;;;22.61;63.02;101324.97;5416976;26;20507;-51
2024/04/13 10:45:17;;;;;;;0.40;0.20;;;;;;;22.76;62.97;101328.56;5416958;26;20544;-51
2024/04/13 10:47:45;;;;;;;0.40;0.20;;;;;;;22.73;62.11;101316.06;5416976;26;20865;-50
2024/04/13 10:50:14;;;;;;;0.50;0.30;;;;;;;22.47;63.64;101319.53;5417435;26;20515;-51
2024/04/13 10:52:41;;;;;;;0.40;0.30;;;;;;;22.31;64.55;101313.31;5416910;26;20589;-51
2024/04/13 10:55:12;;;;;;;0.40;0.20;;;;;;;22.76;63.83;101313.19;5417544;26;20508;-51
2024/04/13 10:57:41;;;;;;;0.40;0.20;;;;;;;22.79;63.08;101313.94;5416831;26;20483;-51
2024/04/13 11:00:08;;;;;;;0.40;0.20;;;;;;;22.38;64.30;101310.16;5417043;26;20463;-51
2024/04/13 11:02:37;;;;;;;0.40;0.20;;;;;;;22.43;64.93;101310.72;5392379;26;20483;-51
2024/04/13 11:05:07;;;;;;;0.40;0.20;;;;;;;22.27;64.94;101306.34;5405836;26;20574;-50
2024/04/13 11:07:37;;;;;;;0.40;0.20;;;;;;;22.64;64.70;101303.09;5416934;26;20447;-49
2024/04/13 11:10:04;;;;;;;0.40;0.20;;;;;;;23.13;63.42;101301.84;5416635;26;20479;-49
2024/04/13 11:12:30;;;;;;;0.40;0.20;;;;;;;23.15;62.25;101306.19;5416511;26;20460;-50
2024/04/13 11:14:57;;;;;;;0.40;0.20;;;;;;;23.02;62.33;101300.69;5416436;26;20479;-49
2024/04/13 11:17:24;;;;;;;0.40;0.20;;;;;;;22.84;62.36;101298.28;5416727;26;20529;-50
2024/04/13 11:19:50;;;;;;;0.40;0.20;;;;;;;23.16;62.73;101286.22;5416341;26;20443;-49
2024/04/13 11:22:18;;;;;;;0.40;0.30;;;;;;;23.37;61.57;101283.97;5416728;26;20463;-49
2024/04/13 11:24:45;;;;;;;0.40;0.30;;;;;;;22.92;61.26;101283.28;5416570;26;20874;-50
2024/04/13 11:27:12;;;;;;;0.40;0.20;;;;;;;22.98;62.87;101269.31;5416475;26;20520;-50